Time;durP1;ratioP1;P1;durP2;ratioP2;P2;SDS_P1;SDS_P2;PMS_P1;PMS_P2;Temp;Humidity;BMP_temperature;BMP_pressure;BME280_temperature;BME280_humidity;BME280_pressure;Samples;Min_cycle;Max_cycle;Signal;HPM_P1;HPM_P2
2021/08/13 00:00:44;;;;;;;15.68;10.10;;;;;;;19.67;74.28;101809.78;10150679;28;20142;-66
2021/08/13 00:05:41;;;;;;;16.95;11.45;;;;;;;19.64;75.03;101801.38;10172503;28;20046;-66
2021/08/13 00:10:37;;;;;;;13.73;9.48;;;;;;;19.64;75.18;101809.69;10146758;28;20098;-66
2021/08/13 00:15:34;;;;;;;15.23;11.23;;;;;;;19.63;75.32;101800.53;10168287;28;20061;-67
2021/08/13 00:20:32;;;;;;;14.13;10.77;;;;;;;19.65;75.67;101794.63;10186552;28;20046;-66
2021/08/13 00:25:28;;;;;;;15.60;10.85;;;;;;;19.64;76.10;101793.03;10155342;28;20121;-67
2021/08/13 00:30:25;;;;;;;15.90;10.80;;;;;;;19.63;76.28;101788.63;10182136;28;20085;-67
2021/08/13 00:35:21;;;;;;;14.98;10.73;;;;;;;19.63;76.36;101796.97;10184876;28;20054;-68
2021/08/13 00:40:18;;;;;;;15.80;11.27;;;;;;;19.63;76.36;101799.72;10169062;28;20058;-67
2021/08/13 00:45:14;;;;;;;15.35;11.93;;;;;;;19.60;76.46;101803.22;10162631;28;20055;-66
2021/08/13 00:50:11;;;;;;;15.30;12.10;;;;;;;19.59;76.56;101804.38;10184745;28;20081;-66
2021/08/13 00:55:08;;;;;;;16.60;12.73;;;;;;;19.58;76.56;101813.88;10162072;28;20085;-67
2021/08/13 01:00:05;;;;;;;18.20;12.00;;;;;;;19.55;76.88;101818.94;10182779;28;20089;-67
2021/08/13 01:05:02;;;;;;;14.35;12.00;;;;;;;19.52;77.13;101811.34;10153163;28;20069;-66
2021/08/13 01:09:58;;;;;;;14.82;12.25;;;;;;;19.53;77.06;101812.16;10155100;28;20054;-66
2021/08/13 01:15:15;;;;;;;14.75;11.60;;;;;;;19.52;77.54;101818.88;10143805;28;20042;-66
2021/08/13 01:20:49;;;;;;;14.23;11.63;;;;;;;19.50;77.22;101826.72;10133631;28;20054;-67
2021/08/13 01:25:52;;;;;;;14.48;12.02;;;;;;;19.48;77.51;101827.06;10147626;28;20074;-67
2021/08/13 01:30:48;;;;;;;16.25;11.75;;;;;;;19.50;77.52;101823.94;10170027;28;20045;-66
2021/08/13 01:35:48;;;;;;;16.20;10.93;;;;;;;19.49;77.60;101820.34;10163032;28;20485;-67
2021/08/13 01:40:47;;;;;;;15.93;11.13;;;;;;;19.49;77.84;101814.81;10165655;28;20104;-68
2021/08/13 01:45:45;;;;;;;14.25;11.73;;;;;;;19.49;78.22;101809.25;10153519;28;20055;-66
2021/08/13 01:50:42;;;;;;;15.43;12.05;;;;;;;19.48;77.95;101824.28;10161875;28;20045;-67
2021/08/13 01:55:39;;;;;;;14.43;11.70;;;;;;;19.47;78.22;101828.25;10146404;28;20070;-67
2021/08/13 02:00:37;;;;;;;14.35;11.43;;;;;;;19.46;77.99;101821.06;10171835;28;20080;-68
2021/08/13 02:05:37;;;;;;;16.48;11.32;;;;;;;19.44;78.08;101820.59;10193875;28;20045;-67
2021/08/13 02:10:37;;;;;;;15.18;10.32;;;;;;;19.42;78.23;101831.25;10161880;28;20046;-68
2021/08/13 02:15:37;;;;;;;15.30;11.30;;;;;;;19.40;77.68;101816.94;10186086;28;20077;-67
2021/08/13 02:20:37;;;;;;;15.18;11.18;;;;;;;19.39;78.24;101818.09;10150148;28;20046;-67
2021/08/13 02:25:33;;;;;;;17.02;11.38;;;;;;;19.38;78.46;101819.25;10166788;28;20043;-67
2021/08/13 02:30:30;;;;;;;14.77;11.90;;;;;;;19.36;78.43;101826.31;10146883;28;20843;-66
2021/08/13 02:35:30;;;;;;;17.70;12.07;;;;;;;19.32;78.30;101815.09;10173517;28;20042;-67
2021/08/13 02:40:31;;;;;;;17.38;13.15;;;;;;;19.25;78.01;101809.34;10169449;28;20119;-65
2021/08/13 02:45:31;;;;;;;17.67;12.73;;;;;;;19.21;78.38;101812.00;10143702;28;20115;-67
2021/08/13 02:50:30;;;;;;;15.13;12.57;;;;;;;19.16;78.60;101817.00;10167270;28;20722;-67
2021/08/13 02:55:40;;;;;;;15.52;13.68;;;;;;;19.12;78.93;101811.34;10149571;28;20046;-66
2021/08/13 03:00:40;;;;;;;15.48;12.88;;;;;;;19.09;78.97;101801.75;10171517;28;20462;-67
2021/08/13 03:05:41;;;;;;;17.83;12.70;;;;;;;19.03;79.12;101805.94;10192877;28;20092;-67
2021/08/13 03:10:38;;;;;;;17.20;13.85;;;;;;;19.00;78.93;101787.22;10171130;28;20061;-67
2021/08/13 03:15:35;;;;;;;19.10;13.88;;;;;;;18.95;78.92;101792.22;10184000;28;20042;-67
2021/08/13 03:20:33;;;;;;;18.67;14.52;;;;;;;18.86;79.11;101792.31;10170854;28;20062;-67
2021/08/13 03:25:29;;;;;;;17.25;15.20;;;;;;;18.80;79.33;101788.16;10188339;28;20129;-67
2021/08/13 03:30:26;;;;;;;20.75;16.70;;;;;;;18.72;79.81;101790.69;10193578;28;20065;-67
2021/08/13 03:35:23;;;;;;;18.02;14.93;;;;;;;18.66;79.56;101786.56;10155126;28;20046;-67
2021/08/13 03:40:19;;;;;;;19.25;16.55;;;;;;;18.62;79.78;101793.94;10200591;28;20045;-67
2021/08/13 03:45:16;;;;;;;21.65;17.05;;;;;;;18.57;79.81;101802.47;10164020;28;20080;-67
2021/08/13 03:50:12;;;;;;;21.55;17.52;;;;;;;18.50;80.21;101807.78;10197298;28;20527;-67
2021/08/13 03:55:11;;;;;;;22.13;17.77;;;;;;;18.44;80.36;101803.63;10152975;28;20061;-67
2021/08/13 04:00:09;;;;;;;20.50;17.17;;;;;;;18.40;80.51;101803.50;10140712;28;20047;-67
2021/08/13 04:05:06;;;;;;;22.98;19.15;;;;;;;18.37;80.28;101798.66;10182785;28;20469;-67
2021/08/13 04:10:04;;;;;;;21.50;18.25;;;;;;;18.34;80.52;101798.56;10137203;28;20074;-67
2021/08/13 04:15:00;;;;;;;21.73;18.60;;;;;;;18.28;80.72;101793.22;10181237;28;20088;-67
2021/08/13 04:19:57;;;;;;;21.52;17.75;;;;;;;18.27;80.51;101805.47;10131574;28;20061;-67
2021/08/13 04:24:53;;;;;;;23.40;19.27;;;;;;;18.24;80.83;101816.41;10167087;28;20101;-67
2021/08/13 04:29:51;;;;;;;25.40;19.10;;;;;;;18.20;80.83;101821.81;10189413;28;20515;-67
2021/08/13 04:34:47;;;;;;;23.92;19.35;;;;;;;18.18;81.37;101818.59;10162443;28;20093;-67
2021/08/13 04:39:44;;;;;;;26.92;20.15;;;;;;;18.16;81.40;101809.81;10191388;28;20066;-67
2021/08/13 04:44:40;;;;;;;22.65;17.80;;;;;;;18.16;81.57;101820.88;10173445;28;20198;-67
2021/08/13 04:49:37;;;;;;;22.02;18.80;;;;;;;18.14;81.75;101812.13;10166444;28;20092;-67
2021/08/13 04:54:33;;;;;;;21.98;17.83;;;;;;;18.15;81.66;101824.81;10159730;28;20468;-67
2021/08/13 04:59:30;;;;;;;24.10;19.60;;;;;;;18.17;81.90;101828.06;10167563;28;20073;-67
2021/08/13 05:04:26;;;;;;;23.83;19.88;;;;;;;18.20;82.04;101816.28;10161455;28;20046;-67
2021/08/13 05:09:23;;;;;;;20.35;18.08;;;;;;;18.21;82.04;101823.44;10161891;28;20085;-67
2021/08/13 05:14:20;;;;;;;22.80;17.98;;;;;;;18.24;82.41;101817.22;10157141;28;20101;-67
2021/08/13 05:19:16;;;;;;;26.42;19.13;;;;;;;18.26;82.36;101825.16;10176803;28;20125;-67
2021/08/13 05:24:12;;;;;;;23.98;18.63;;;;;;;18.32;82.75;101825.78;10183034;28;20041;-67
2021/08/13 05:29:09;;;;;;;22.58;18.73;;;;;;;18.37;82.54;101831.88;10158433;28;20077;-67
2021/08/13 05:34:05;;;;;;;23.25;17.63;;;;;;;18.44;82.81;101834.09;10180784;28;20053;-67
2021/08/13 05:39:02;;;;;;;21.70;17.52;;;;;;;18.51;82.79;101832.34;10175735;28;20123;-67
2021/08/13 05:43:59;;;;;;;22.67;17.77;;;;;;;18.60;82.57;101826.72;10155297;28;20046;-67
2021/08/13 05:48:57;;;;;;;23.38;18.00;;;;;;;18.68;81.68;101831.34;10171214;28;20169;-67
2021/08/13 05:53:54;;;;;;;19.70;16.52;;;;;;;18.79;81.02;101833.66;10142159;28;20042;-67
2021/08/13 05:58:50;;;;;;;20.88;16.45;;;;;;;18.90;80.33;101832.06;10165620;28;20050;-67
2021/08/13 06:03:47;;;;;;;20.35;14.65;;;;;;;18.99;80.30;101838.28;10138203;28;20042;-67
2021/08/13 06:08:43;;;;;;;20.38;16.20;;;;;;;19.07;78.36;101842.88;10141696;28;20094;-67
2021/08/13 06:13:40;;;;;;;19.52;14.35;;;;;;;19.14;78.32;101832.00;10134151;28;20088;-67
2021/08/13 06:18:37;;;;;;;18.83;14.07;;;;;;;19.22;77.60;101832.25;10158572;28;20133;-66
2021/08/13 06:23:33;;;;;;;20.90;13.35;;;;;;;19.30;77.58;101828.50;10196378;28;20045;-68
2021/08/13 06:28:30;;;;;;;16.30;12.88;;;;;;;19.36;76.83;101827.13;10172759;28;20042;-66
2021/08/13 06:33:26;;;;;;;16.35;11.35;;;;;;;19.43;76.31;101819.00;10198689;28;20049;-67
2021/08/13 06:38:23;;;;;;;17.20;11.80;;;;;;;19.49;76.20;101823.13;10146408;28;20034;-66
2021/08/13 06:43:19;;;;;;;15.02;10.18;;;;;;;19.61;75.37;101821.47;10197679;28;20198;-66
2021/08/13 06:48:16;;;;;;;13.35;9.23;;;;;;;19.71;72.56;101826.56;10165833;28;20042;-67
2021/08/13 06:53:12;;;;;;;15.48;9.32;;;;;;;19.82;71.41;101811.03;10189735;28;20089;-68
2021/08/13 06:58:08;;;;;;;14.38;8.95;;;;;;;19.96;70.04;101828.06;10163071;28;20074;-67
2021/08/13 07:03:05;;;;;;;12.82;7.63;;;;;;;20.12;68.74;101825.31;10152180;28;20055;-67
2021/08/13 07:08:12;;;;;;;10.00;6.75;;;;;;;20.34;66.76;101837.75;10201041;28;20574;-67
2021/08/13 07:13:08;;;;;;;12.20;7.45;;;;;;;20.55;64.40;101825.59;10123575;28;20077;-67
2021/08/13 07:18:05;;;;;;;13.95;6.38;;;;;;;20.76;64.00;101817.78;10149265;28;20067;-67
2021/08/13 07:23:01;;;;;;;11.00;6.07;;;;;;;20.85;64.45;101828.72;10198135;28;20050;-66
2021/08/13 07:27:57;;;;;;;11.63;7.68;;;;;;;20.89;63.34;101845.50;10142228;28;20101;-66
2021/08/13 07:32:54;;;;;;;15.43;7.45;;;;;;;20.90;63.86;101833.19;10192788;28;20076;-67
2021/08/13 07:37:50;;;;;;;11.45;6.40;;;;;;;20.93;63.83;101840.81;10142459;28;20090;-66
2021/08/13 07:42:48;;;;;;;9.23;6.75;;;;;;;21.00;63.79;101846.53;10188625;28;20046;-66
2021/08/13 07:47:44;;;;;;;10.88;7.15;;;;;;;21.10;64.00;101829.28;10132605;28;20063;-67
2021/08/13 07:52:40;;;;;;;10.90;7.15;;;;;;;21.23;63.79;101839.13;10183218;28;20085;-68
2021/08/13 07:57:37;;;;;;;10.80;6.90;;;;;;;21.34;62.60;101828.22;10188123;28;20076;-67
2021/08/13 08:02:33;;;;;;;9.68;5.63;;;;;;;21.44;62.56;101832.41;10162847;28;20525;-66
2021/08/13 08:07:30;;;;;;;11.18;6.97;;;;;;;21.50;61.63;101828.19;10163624;28;20100;-67
2021/08/13 08:12:27;;;;;;;11.48;7.40;;;;;;;21.58;61.20;101829.97;10137011;28;20047;-66
2021/08/13 08:17:23;;;;;;;10.93;7.25;;;;;;;21.70;61.55;101836.53;10160740;28;20085;-67
2021/08/13 08:22:20;;;;;;;12.38;7.50;;;;;;;21.84;60.53;101845.19;10168927;28;20555;-67
2021/08/13 08:27:16;;;;;;;9.80;7.28;;;;;;;21.93;60.32;101842.13;10181088;28;20046;-67
2021/08/13 08:32:13;;;;;;;12.85;7.13;;;;;;;22.11;60.48;101842.47;10163750;28;20424;-67
2021/08/13 08:37:11;;;;;;;11.32;7.15;;;;;;;22.26;59.77;101855.53;10161234;28;20202;-67
2021/08/13 08:42:12;;;;;;;10.50;7.30;;;;;;;22.22;59.71;101840.72;10118884;28;20520;-69
2021/08/13 08:47:09;;;;;;;10.98;7.28;;;;;;;22.29;60.11;101838.06;10175044;28;20088;-66
2021/08/13 08:52:07;;;;;;;16.38;8.95;;;;;;;22.41;58.86;101840.66;10179451;28;20050;-66
2021/08/13 08:57:06;;;;;;;13.68;7.93;;;;;;;22.50;58.10;101826.47;10172663;28;20472;-67
2021/08/13 09:02:11;;;;;;;11.98;8.05;;;;;;;22.60;58.04;101816.69;10179409;28;20150;-67
2021/08/13 09:07:08;;;;;;;11.13;6.55;;;;;;;22.77;58.65;101813.38;10168416;28;20048;-65
2021/08/13 09:12:06;;;;;;;9.50;7.57;;;;;;;22.85;58.06;101820.66;10181641;28;20073;-68
2021/08/13 09:17:03;;;;;;;11.65;6.97;;;;;;;22.97;58.11;101810.47;10160237;28;20515;-67
2021/08/13 09:22:08;;;;;;;12.85;6.80;;;;;;;23.16;57.86;101818.75;10182880;28;20062;-66
2021/08/13 09:27:41;;;;;;;11.93;6.97;;;;;;;23.39;56.86;101829.00;10173262;28;20074;-67
2021/08/13 09:32:59;;;;;;;12.18;7.72;;;;;;;23.37;55.64;101828.56;10147666;28;20077;-67
2021/08/13 09:37:56;;;;;;;9.23;5.97;;;;;;;23.57;56.41;101843.19;10176020;28;20070;-67
2021/08/13 09:43:01;;;;;;;9.48;6.18;;;;;;;23.60;55.27;101831.25;10160317;28;20049;-67
2021/08/13 09:47:57;;;;;;;11.90;7.20;;;;;;;23.65;54.15;101828.94;10138524;28;20141;-67
2021/08/13 09:53:14;;;;;;;15.45;7.35;;;;;;;23.80;53.77;101823.53;10150079;28;20100;-68
2021/08/13 09:58:11;;;;;;;12.55;6.47;;;;;;;24.01;52.10;101826.53;10129530;28;20066;-68
2021/08/13 10:03:08;;;;;;;10.05;6.68;;;;;;;24.20;52.17;101831.09;10150665;28;20050;-68
2021/08/13 10:08:06;;;;;;;11.25;5.55;;;;;;;24.54;51.13;101817.06;10161077;28;20069;-66
2021/08/13 10:13:07;;;;;;;11.07;6.35;;;;;;;24.97;50.72;101829.34;10179902;28;20531;-68
2021/08/13 10:18:07;;;;;;;10.65;6.20;;;;;;;25.26;50.87;101812.75;10146910;28;20504;-67
2021/08/13 10:23:03;;;;;;;10.00;6.20;;;;;;;25.23;49.64;101824.72;10172023;28;20078;-68
2021/08/13 10:28:00;;;;;;;9.13;6.00;;;;;;;25.68;49.69;101832.91;10181542;28;20495;-67
2021/08/13 10:32:59;;;;;;;9.93;6.50;;;;;;;25.89;48.15;101815.38;10143769;28;20175;-68
2021/08/13 10:37:58;;;;;;;8.75;6.50;;;;;;;26.14;48.72;101813.41;10182937;28;20046;-68
2021/08/13 10:42:55;;;;;;;13.52;7.07;;;;;;;25.99;48.82;101792.16;10151964;28;20459;-66
2021/08/13 10:48:04;;;;;;;8.43;6.10;;;;;;;26.08;48.42;101784.19;10164558;28;20113;-68
2021/08/13 10:53:00;;;;;;;11.23;5.80;;;;;;;26.06;48.69;101797.78;10135055;28;20584;-67
2021/08/13 10:57:59;;;;;;;9.98;6.40;;;;;;;26.51;47.70;101795.41;10144715;28;20059;-66
2021/08/13 11:03:13;;;;;;;12.57;6.20;;;;;;;26.35;47.03;101781.78;10130513;28;20104;-67
2021/08/13 11:08:10;;;;;;;10.07;5.97;;;;;;;25.99;47.70;101792.16;10135629;28;20052;-66
2021/08/13 11:13:10;;;;;;;9.73;6.28;;;;;;;25.90;48.57;101786.16;10194704;28;20123;-66
2021/08/13 11:18:27;;;;;;;10.23;6.43;;;;;;;25.58;49.38;101790.47;10156841;28;20574;-68
2021/08/13 11:23:24;;;;;;;11.60;6.35;;;;;;;25.21;49.90;101787.94;10190271;28;20065;-66
2021/08/13 11:28:23;;;;;;;13.52;6.32;;;;;;;25.25;51.08;101782.34;10136382;28;20089;-68
2021/08/13 11:33:25;;;;;;;8.43;5.90;;;;;;;25.25;50.54;101777.56;10192719;28;20074;-68
2021/08/13 11:38:40;;;;;;;11.20;6.38;;;;;;;25.21;51.15;101779.53;10193609;28;20058;-68
2021/08/13 11:43:41;;;;;;;10.65;5.90;;;;;;;25.17;50.70;101771.09;10144162;28;20750;-66
2021/08/13 11:48:39;;;;;;;11.25;5.97;;;;;;;25.29;50.45;101767.16;10167026;28;20072;-68
2021/08/13 11:53:36;;;;;;;8.23;5.70;;;;;;;25.50;49.70;101768.44;10151706;28;20471;-67
2021/08/13 11:58:33;;;;;;;9.00;6.20;;;;;;;25.49;49.45;101752.84;10158630;28;20078;-68
2021/08/13 12:03:29;;;;;;;7.65;5.22;;;;;;;25.48;49.69;101768.03;10124696;28;20568;-67
2021/08/13 12:08:26;;;;;;;8.68;6.18;;;;;;;25.68;48.97;101760.88;10153264;28;20042;-67
2021/08/13 12:13:23;;;;;;;14.57;6.50;;;;;;;25.78;49.04;101765.72;10198014;28;20116;-67
2021/08/13 12:18:32;;;;;;;11.35;7.03;;;;;;;25.98;48.05;101765.38;10151969;28;20038;-68
2021/08/13 12:23:29;;;;;;;9.02;6.40;;;;;;;25.70;49.33;101761.28;10160875;28;20046;-66
2021/08/13 12:28:30;;;;;;;12.25;7.53;;;;;;;25.49;49.85;101764.06;10131211;28;20050;-66
2021/08/13 12:33:27;;;;;;;12.07;7.38;;;;;;;25.53;49.49;101759.25;10194982;28;20125;-66
2021/08/13 12:38:31;;;;;;;9.80;6.88;;;;;;;25.70;49.80;101764.09;10122479;28;20039;-67
2021/08/13 12:43:28;;;;;;;13.55;6.20;;;;;;;26.25;48.24;101768.59;10165014;28;20042;-68
2021/08/13 12:48:26;;;;;;;12.23;7.10;;;;;;;26.19;49.03;101770.97;10194781;28;20092;-67
2021/08/13 12:53:34;;;;;;;8.07;6.22;;;;;;;25.96;50.15;101776.97;10161430;28;20281;-68
2021/08/13 12:58:34;;;;;;;10.25;6.93;;;;;;;25.47;50.65;101772.03;10158682;28;20135;-66
2021/08/13 13:03:31;;;;;;;10.88;7.00;;;;;;;25.49;51.03;101764.06;10156533;28;20049;-67
2021/08/13 13:08:27;;;;;;;13.73;7.25;;;;;;;25.50;51.14;101754.44;10159722;28;20100;-67
2021/08/13 13:13:24;;;;;;;11.82;7.03;;;;;;;25.49;51.53;101755.66;10127715;28;20080;-67
2021/08/13 13:18:26;;;;;;;9.65;6.63;;;;;;;25.53;51.10;101756.44;10161333;28;20116;-66
2021/08/13 13:23:35;;;;;;;11.27;7.50;;;;;;;25.72;50.50;101750.50;10187549;28;20046;-67
2021/08/13 13:28:31;;;;;;;12.30;7.68;;;;;;;25.71;50.27;101754.47;10181229;28;20039;-67
2021/08/13 13:33:28;;;;;;;11.40;7.50;;;;;;;25.73;51.05;101757.69;10179273;28;20045;-67
2021/08/13 13:38:27;;;;;;;14.57;7.45;;;;;;;25.76;51.02;101762.53;10150294;28;20097;-68
2021/08/13 13:43:23;;;;;;;11.48;8.07;;;;;;;25.65;51.08;101752.50;10175266;28;20078;-67
2021/08/13 13:48:21;;;;;;;11.98;8.07;;;;;;;25.67;51.14;101753.69;10144553;28;20130;-67
2021/08/13 13:53:18;;;;;;;13.10;9.10;;;;;;;25.58;51.61;101744.88;10171523;28;20081;-68
2021/08/13 13:58:15;;;;;;;13.05;9.25;;;;;;;25.63;51.09;101741.69;10149852;28;20097;-66
2021/08/13 14:03:11;;;;;;;12.82;8.95;;;;;;;25.56;50.87;101724.88;10168112;28;20049;-67
2021/08/13 14:08:09;;;;;;;13.52;9.20;;;;;;;25.81;51.20;101742.50;10171595;28;20045;-67
2021/08/13 14:13:05;;;;;;;14.32;8.60;;;;;;;25.80;50.58;101726.88;10164236;28;20076;-67
2021/08/13 14:18:04;;;;;;;12.52;7.70;;;;;;;25.87;49.09;101720.53;10138207;28;20113;-66
2021/08/13 14:23:00;;;;;;;10.43;6.85;;;;;;;26.07;48.12;101715.34;10160576;28;20073;-67
2021/08/13 14:27:57;;;;;;;10.50;7.97;;;;;;;26.01;47.94;101728.13;10174555;28;20595;-67
2021/08/13 14:32:54;;;;;;;10.88;7.07;;;;;;;26.03;47.27;101706.13;10173373;28;20416;-67
2021/08/13 14:37:50;;;;;;;11.75;7.05;;;;;;;26.05;47.42;101711.34;10173296;28;20050;-68
2021/08/13 14:42:47;;;;;;;10.18;7.18;;;;;;;25.95;46.59;101719.34;10156637;28;20042;-66
2021/08/13 14:47:44;;;;;;;9.10;7.07;;;;;;;25.69;48.06;101723.28;10198052;28;20077;-67
2021/08/13 14:52:40;;;;;;;12.88;7.05;;;;;;;25.50;48.74;101715.25;10189840;28;20523;-67
2021/08/13 14:57:37;;;;;;;9.82;6.88;;;;;;;25.54;49.18;101721.66;10179109;28;20542;-67
2021/08/13 15:02:35;;;;;;;8.98;6.22;;;;;;;25.40;50.37;101717.63;10165905;28;20045;-67
2021/08/13 15:07:32;;;;;;;10.90;6.40;;;;;;;25.44;51.76;101734.44;10165303;28;20509;-67
2021/08/13 15:12:30;;;;;;;9.65;5.50;;;;;;;25.17;52.01;101736.72;10122427;28;20061;-67
2021/08/13 15:17:26;;;;;;;11.77;6.03;;;;;;;24.72;52.16;101750.09;10170319;28;20687;-67
2021/08/13 15:22:23;;;;;;;9.60;4.60;;;;;;;24.61;52.87;101761.19;10191915;28;20050;-67
2021/08/13 15:27:19;;;;;;;8.45;3.92;;;;;;;24.47;53.83;101756.31;10166435;28;20049;-67
2021/08/13 15:32:16;;;;;;;6.25;4.10;;;;;;;24.39;54.81;101771.38;10193586;28;20078;-67
2021/08/13 15:37:12;;;;;;;7.13;4.45;;;;;;;24.33;55.07;101770.16;10154987;28;20116;-67
2021/08/13 15:42:09;;;;;;;9.68;5.57;;;;;;;24.15;56.37;101790.34;10191712;28;20049;-67
2021/08/13 15:47:05;;;;;;;8.40;4.50;;;;;;;24.31;57.65;101781.72;10181971;28;20050;-67
2021/08/13 15:52:02;;;;;;;9.13;3.60;;;;;;;24.10;55.91;101804.69;10146098;28;20046;-67
2021/08/13 15:56:59;;;;;;;6.05;3.78;;;;;;;23.98;54.93;101812.56;10168624;28;20042;-67
2021/08/13 16:01:55;;;;;;;6.15;3.47;;;;;;;23.85;55.37;101803.63;10156953;28;20050;-67
2021/08/13 16:06:52;;;;;;;6.70;3.50;;;;;;;24.00;53.94;101802.59;10167929;28;20046;-66
2021/08/13 16:11:49;;;;;;;7.28;3.22;;;;;;;24.02;51.70;101813.38;10133515;28;20105;-67
2021/08/13 16:16:46;;;;;;;6.15;2.78;;;;;;;23.99;51.44;101803.78;10162613;28;20103;-67
2021/08/13 16:21:44;;;;;;;7.15;4.10;;;;;;;24.25;48.68;101810.41;10192814;28;20120;-67
2021/08/13 16:26:41;;;;;;;10.95;2.88;;;;;;;24.35;47.41;101795.72;10179527;28;20679;-67
2021/08/13 16:31:37;;;;;;;6.82;3.97;;;;;;;23.75;46.04;101816.31;10188127;28;20100;-65
2021/08/13 16:36:36;;;;;;;8.50;3.88;;;;;;;23.77;45.61;101808.34;10171502;28;20073;-67
2021/08/13 16:41:34;;;;;;;9.93;3.35;;;;;;;23.69;43.64;101838.13;10184089;28;20432;-67
2021/08/13 16:46:30;;;;;;;6.28;2.97;;;;;;;24.02;42.10;101822.56;10152583;28;20069;-67
2021/08/13 16:51:27;;;;;;;5.85;2.85;;;;;;;24.26;40.67;101820.41;10179241;28;20053;-67
2021/08/13 16:56:23;;;;;;;5.65;2.90;;;;;;;24.54;39.28;101820.66;10193120;28;20104;-67
2021/08/13 17:01:20;;;;;;;7.65;3.30;;;;;;;24.24;39.25;101826.38;10168844;28;20420;-67
2021/08/13 17:06:17;;;;;;;6.18;2.65;;;;;;;24.04;39.73;101831.34;10146897;28;20149;-67
2021/08/13 17:11:14;;;;;;;9.60;4.05;;;;;;;23.53;41.83;101831.94;10160779;28;20583;-67
2021/08/13 17:16:10;;;;;;;7.25;3.25;;;;;;;23.39;45.63;101842.94;10142549;28;20173;-66
2021/08/13 17:21:09;;;;;;;8.65;3.10;;;;;;;22.98;50.27;101848.34;10179242;28;20056;-67
2021/08/13 17:26:06;;;;;;;10.57;3.20;;;;;;;22.86;51.51;101855.75;10194808;28;20052;-67
2021/08/13 17:31:03;;;;;;;12.20;3.10;;;;;;;22.46;53.95;101845.13;10189934;28;20065;-67
2021/08/13 17:35:59;;;;;;;15.68;3.67;;;;;;;22.10;55.68;101841.69;10193238;28;20050;-67
2021/08/13 17:40:56;;;;;;;17.77;3.83;;;;;;;21.98;56.00;101845.44;10165799;28;20054;-65
2021/08/13 17:45:52;;;;;;;13.20;3.60;;;;;;;21.68;57.22;101852.81;10183039;28;20049;-66
2021/08/13 17:50:49;;;;;;;16.08;4.13;;;;;;;21.73;57.00;101860.84;10151130;28;20099;-66
2021/08/13 17:55:45;;;;;;;13.02;3.63;;;;;;;21.49;57.40;101868.31;10168527;28;20034;-66
2021/08/13 18:00:42;;;;;;;16.92;5.15;;;;;;;21.45;57.52;101883.31;10146090;28;20492;-66
2021/08/13 18:05:39;;;;;;;15.57;5.60;;;;;;;21.41;57.50;101872.91;10165752;28;20063;-66
2021/08/13 18:10:38;;;;;;;14.35;4.13;;;;;;;21.42;57.67;101877.31;10154331;28;20073;-66
2021/08/13 18:15:35;;;;;;;14.55;4.60;;;;;;;21.50;56.87;101881.06;10138528;28;20467;-65
2021/08/13 18:20:34;;;;;;;14.80;3.90;;;;;;;21.47;57.36;101881.78;10173689;28;20092;-66
2021/08/13 18:25:30;;;;;;;11.85;3.42;;;;;;;21.37;57.11;101876.75;10184512;28;20100;-66
2021/08/13 18:30:27;;;;;;;10.55;3.50;;;;;;;21.39;56.90;101885.53;10144454;28;20504;-66
2021/08/13 18:35:38;;;;;;;10.88;3.60;;;;;;;21.19;57.81;101874.38;10163094;28;20057;-66
2021/08/13 18:40:35;;;;;;;15.43;4.60;;;;;;;21.05;57.84;101893.53;10132840;28;20427;-66
2021/08/13 18:45:33;;;;;;;16.30;3.13;;;;;;;20.83;57.93;101902.50;10177034;28;20121;-66
2021/08/13 18:50:30;;;;;;;15.93;4.30;;;;;;;20.77;58.14;101911.13;10158227;28;20052;-66
2021/08/13 18:55:26;;;;;;;12.23;3.30;;;;;;;20.70;58.06;101916.50;10147986;28;20050;-66
2021/08/13 19:00:23;;;;;;;12.88;3.25;;;;;;;20.55;58.29;101914.50;10156608;28;20100;-66
2021/08/13 19:05:23;;;;;;;14.93;4.55;;;;;;;20.42;59.17;101910.16;10178101;28;20050;-66
2021/08/13 19:10:20;;;;;;;14.30;3.63;;;;;;;20.38;58.87;101916.44;10162840;28;20050;-65
2021/08/13 19:15:17;;;;;;;10.07;2.97;;;;;;;20.23;59.40;101917.22;10177613;28;20085;-67
2021/08/13 19:20:15;;;;;;;12.85;3.65;;;;;;;20.22;59.51;101917.59;10141101;28;20137;-65
2021/08/13 19:25:12;;;;;;;13.73;3.55;;;;;;;20.06;62.03;101931.41;10173206;28;20405;-65
2021/08/13 19:30:09;;;;;;;16.55;3.35;;;;;;;20.07;63.25;101928.25;10198308;28;20077;-64
2021/08/13 19:35:07;;;;;;;17.58;3.60;;;;;;;19.93;64.47;101944.53;10157320;28;20054;-67
2021/08/13 19:40:05;;;;;;;19.63;4.70;;;;;;;19.93;64.75;101950.88;10196258;28;20084;-67
2021/08/13 19:45:02;;;;;;;17.88;3.60;;;;;;;19.74;66.32;101964.59;10166231;28;20078;-67
2021/08/13 19:49:58;;;;;;;23.80;5.05;;;;;;;19.77;66.37;101958.31;10164621;28;20058;-67
2021/08/13 19:54:55;;;;;;;21.95;4.50;;;;;;;19.72;66.96;101961.34;10158430;28;20074;-68
2021/08/13 19:59:51;;;;;;;17.45;4.82;;;;;;;19.60;67.36;101953.03;10165710;28;20138;-67
2021/08/13 20:04:47;;;;;;;15.38;4.78;;;;;;;19.51;67.44;101956.72;10174588;28;20471;-67
2021/08/13 20:09:44;;;;;;;19.95;4.38;;;;;;;19.46;66.63;101951.41;10189798;28;20066;-67
2021/08/13 20:14:41;;;;;;;18.50;4.20;;;;;;;19.44;66.49;101950.97;10173018;28;20047;-67
2021/08/13 20:19:38;;;;;;;23.35;4.65;;;;;;;19.36;66.56;101943.59;10167904;28;20043;-68
2021/08/13 20:24:34;;;;;;;17.00;3.30;;;;;;;19.25;66.47;101940.47;10161627;28;20174;-67
2021/08/13 20:29:31;;;;;;;17.05;4.22;;;;;;;19.25;66.54;101942.44;10183779;28;20073;-67
2021/08/13 20:34:27;;;;;;;14.77;3.92;;;;;;;19.10;66.58;101953.06;10177699;28;20082;-68
2021/08/13 20:39:24;;;;;;;16.38;3.38;;;;;;;19.10;67.10;101958.63;10165910;28;20050;-66
2021/08/13 20:44:21;;;;;;;16.52;3.95;;;;;;;19.10;66.84;101953.06;10183070;28;20423;-68
2021/08/13 20:49:17;;;;;;;19.67;4.80;;;;;;;19.08;67.19;101955.38;10175439;28;20070;-66
2021/08/13 20:54:15;;;;;;;19.15;4.00;;;;;;;19.11;66.74;101949.13;10162368;28;20050;-66
2021/08/13 20:59:11;;;;;;;14.95;3.45;;;;;;;19.06;66.95;101946.59;10157113;28;20077;-67
2021/08/13 21:04:08;;;;;;;18.23;3.88;;;;;;;18.93;67.57;101944.97;10148001;28;20050;-67
2021/08/13 21:09:04;;;;;;;18.60;3.47;;;;;;;18.98;67.54;101943.94;10161788;28;20089;-66
2021/08/13 21:14:01;;;;;;;22.25;3.97;;;;;;;18.86;67.38;101953.84;10142185;28;20051;-67
2021/08/13 21:18:58;;;;;;;19.98;3.72;;;;;;;18.90;67.56;101951.19;10146151;28;20043;-66
2021/08/13 21:23:55;;;;;;;16.08;4.80;;;;;;;18.86;67.34;101944.72;10137283;28;20477;-66
2021/08/13 21:28:51;;;;;;;16.73;4.03;;;;;;;18.85;67.24;101951.44;10157727;28;20041;-67
2021/08/13 21:33:48;;;;;;;19.40;3.88;;;;;;;18.77;67.06;101955.91;10190613;28;20088;-66
2021/08/13 21:38:44;;;;;;;16.13;3.40;;;;;;;18.74;67.57;101955.78;10154000;28;20069;-66
2021/08/13 21:43:41;;;;;;;21.70;3.40;;;;;;;18.66;67.38;101954.72;10187965;28;20069;-68
2021/08/13 21:48:37;;;;;;;21.10;3.90;;;;;;;18.62;67.56;101949.03;10186768;28;20042;-66
2021/08/13 21:53:34;;;;;;;21.23;3.83;;;;;;;18.59;67.87;101960.81;10138010;28;20096;-66
2021/08/13 21:58:30;;;;;;;19.45;3.70;;;;;;;18.56;67.74;101961.50;10161226;28;20500;-67
2021/08/13 22:03:26;;;;;;;17.10;4.30;;;;;;;18.54;67.90;101962.97;10122679;28;20046;-67
2021/08/13 22:08:23;;;;;;;22.02;3.47;;;;;;;18.52;67.97;101960.56;10144810;28;20468;-67
2021/08/13 22:13:19;;;;;;;14.77;3.28;;;;;;;18.47;68.32;101958.00;10194797;28;20069;-67
2021/08/13 22:18:16;;;;;;;17.70;4.00;;;;;;;18.26;69.52;101969.94;10130954;28;20077;-67
2021/08/13 22:23:15;;;;;;;22.45;4.20;;;;;;;18.33;69.03;101963.84;10185688;28;20402;-67
2021/08/13 22:28:14;;;;;;;17.80;3.75;;;;;;;18.38;69.11;101968.34;10154544;28;20652;-67
2021/08/13 22:33:11;;;;;;;21.75;3.67;;;;;;;18.38;69.13;101960.88;10117427;28;20047;-66